Time;durP1;ratioP1;P1;durP2;ratioP2;P2;SDS_P1;SDS_P2;PMS_P1;PMS_P2;Temp;Humidity;BMP_temperature;BMP_pressure;BME280_temperature;BME280_humidity;BME280_pressure;Samples;Min_cycle;Max_cycle;Signal;HPM_P1;HPM_P2
2022/11/14 00:00:32;;;;;;;27.83;18.05;;;;;;;3.94;100.00;101383.97;5106181;28;20354;-64
2022/11/14 00:03:02;;;;;;;28.45;18.80;;;;;;;3.97;100.00;101378.84;5106258;28;20073;-63
2022/11/14 00:05:28;;;;;;;27.13;18.20;;;;;;;3.94;100.00;101374.38;5105868;28;20032;-64
2022/11/14 00:07:53;;;;;;;28.50;18.88;;;;;;;3.91;100.00;101373.38;5105207;28;20023;-63
2022/11/14 00:10:19;;;;;;;27.42;19.05;;;;;;;3.86;100.00;101372.28;5104907;28;20024;-64
2022/11/14 00:12:44;;;;;;;27.73;18.63;;;;;;;3.83;100.00;101360.88;5107647;28;20019;-63
2022/11/14 00:15:11;;;;;;;28.88;18.30;;;;;;;3.83;100.00;101358.28;5100026;28;20032;-63
2022/11/14 00:17:36;;;;;;;27.38;18.45;;;;;;;3.77;100.00;101365.88;5106854;28;20095;-63
2022/11/14 00:20:02;;;;;;;27.70;18.60;;;;;;;3.74;100.00;101365.75;5105273;28;20099;-64
2022/11/14 00:22:28;;;;;;;26.92;17.95;;;;;;;3.72;100.00;101364.78;5106078;28;20047;-64
2022/11/14 00:24:53;;;;;;;26.70;17.55;;;;;;;3.75;100.00;101364.03;5106069;28;20028;-63
2022/11/14 00:27:18;;;;;;;26.45;17.40;;;;;;;3.70;100.00;101363.84;5104310;28;20026;-63
2022/11/14 00:29:44;;;;;;;27.33;17.92;;;;;;;3.64;100.00;101361.88;5107630;28;20031;-64
2022/11/14 00:32:09;;;;;;;27.23;18.08;;;;;;;3.65;100.00;101363.63;5103779;27;20063;-63
2022/11/14 00:34:34;;;;;;;26.77;17.65;;;;;;;3.68;100.00;101362.88;5106624;28;20063;-64
2022/11/14 00:37:00;;;;;;;26.67;17.45;;;;;;;3.64;100.00;101360.97;5103912;28;20020;-64
2022/11/14 00:39:25;;;;;;;26.42;17.75;;;;;;;3.54;100.00;101354.47;5105148;28;20481;-63
2022/11/14 00:41:51;;;;;;;26.40;17.42;;;;;;;3.51;100.00;101356.06;5106299;28;20032;-63
2022/11/14 00:44:16;;;;;;;26.20;17.27;;;;;;;3.50;100.00;101344.72;5103321;28;20052;-64
2022/11/14 00:46:41;;;;;;;27.90;17.27;;;;;;;3.50;100.00;101344.72;5103449;27;20042;-67
2022/11/14 00:49:07;;;;;;;27.23;16.75;;;;;;;3.44;100.00;101358.44;5107027;28;20027;-68
2022/11/14 00:51:32;;;;;;;26.08;16.98;;;;;;;3.43;100.00;101347.91;5103421;28;20402;-68
2022/11/14 00:53:58;;;;;;;27.13;17.60;;;;;;;3.42;100.00;101344.41;5105818;28;20074;-68
2022/11/14 00:56:23;;;;;;;26.20;16.85;;;;;;;3.36;100.00;101336.28;5104958;28;20036;-67
2022/11/14 00:58:48;;;;;;;26.73;17.13;;;;;;;3.37;100.00;101332.84;5104362;28;20047;-68
2022/11/14 01:01:14;;;;;;;26.42;17.23;;;;;;;3.36;100.00;101332.81;5103040;28;20070;-68
2022/11/14 01:03:39;;;;;;;25.77;16.40;;;;;;;3.30;100.00;101330.81;5105750;28;20023;-67
2022/11/14 01:06:07;;;;;;;26.35;17.05;;;;;;;3.27;100.00;101321.13;5103224;28;20032;-67
2022/11/14 01:08:33;;;;;;;26.95;16.77;;;;;;;3.22;100.00;101321.75;5106364;28;20478;-66
2022/11/14 01:10:59;;;;;;;25.88;15.95;;;;;;;3.22;100.00;101308.69;5103081;28;20035;-67
2022/11/14 01:13:25;;;;;;;27.00;16.23;;;;;;;3.17;100.00;101315.47;5105967;28;20077;-67
2022/11/14 01:15:51;;;;;;;26.92;16.33;;;;;;;3.14;100.00;101306.66;5102480;28;20110;-67
2022/11/14 01:18:19;;;;;;;26.05;16.20;;;;;;;3.11;100.00;101301.28;5104849;28;20028;-67
2022/11/14 01:20:46;;;;;;;27.20;15.85;;;;;;;3.08;100.00;101297.69;5104775;27;20023;-68
2022/11/14 01:23:13;;;;;;;24.48;15.07;;;;;;;3.05;100.00;101298.44;5103743;28;20099;-68
2022/11/14 01:25:40;;;;;;;25.83;15.85;;;;;;;2.96;100.00;101298.06;5105412;28;20531;-68
2022/11/14 01:28:07;;;;;;;26.35;15.75;;;;;;;2.95;100.00;101293.66;5102868;28;20024;-68
2022/11/14 01:30:33;;;;;;;25.77;14.95;;;;;;;2.94;100.00;101286.63;5106276;28;20039;-69
2022/11/14 01:32:58;;;;;;;25.77;15.43;;;;;;;2.92;100.00;101286.56;5098546;28;20494;-68
2022/11/14 01:35:23;;;;;;;25.27;15.88;;;;;;;2.91;100.00;101289.13;5105611;28;20088;-68
2022/11/14 01:37:49;;;;;;;26.35;15.88;;;;;;;2.95;100.00;101288.44;5103636;28;20122;-68
2022/11/14 01:40:15;;;;;;;26.05;15.63;;;;;;;2.90;100.00;101292.59;5104120;28;20485;-68
2022/11/14 01:42:40;;;;;;;26.27;15.70;;;;;;;2.88;100.00;101283.78;5104505;28;20051;-69
2022/11/14 01:46:00;;;;;;;25.83;15.93;;;;;;;2.92;100.00;101273.50;5102832;28;20026;-69
2022/11/14 01:48:34;;;;;;;25.80;15.45;;;;;;;2.92;100.00;101286.56;5040915;28;20484;-68
2022/11/14 01:51:11;;;;;;;25.75;15.07;;;;;;;2.88;100.00;101276.81;5089452;28;20036;-69
2022/11/14 01:53:36;;;;;;;25.83;15.10;;;;;;;2.75;100.00;101283.25;5099047;28;20106;-68
2022/11/14 01:56:04;;;;;;;24.38;15.27;;;;;;;2.73;100.00;101287.50;5105493;28;20529;-69
2022/11/14 01:58:32;;;;;;;25.02;14.93;;;;;;;2.72;100.00;101283.13;5101959;28;20027;-68
2022/11/14 02:00:58;;;;;;;26.65;16.00;;;;;;;2.79;100.00;101279.03;5098132;28;20032;-69
2022/11/14 02:03:23;;;;;;;26.30;15.63;;;;;;;2.76;100.00;101271.97;5105871;28;20035;-69
2022/11/14 02:05:50;;;;;;;23.67;14.27;;;;;;;2.59;100.00;101278.19;5102282;28;20032;-68
2022/11/14 02:08:16;;;;;;;25.50;14.90;;;;;;;2.56;100.00;101278.97;5103804;28;20028;-68
2022/11/14 02:10:42;;;;;;;24.80;14.73;;;;;;;2.36;100.00;101272.84;5103299;28;20028;-68
2022/11/14 02:13:07;;;;;;;26.02;15.95;;;;;;;2.34;100.00;101271.88;5103164;28;20063;-68
2022/11/14 02:15:33;;;;;;;26.55;15.60;;;;;;;2.28;100.00;101269.00;5104406;28;20016;-68
2022/11/14 02:17:59;;;;;;;26.92;15.65;;;;;;;2.21;100.00;101266.94;5102086;28;20032;-68
2022/11/14 02:20:31;;;;;;;25.25;15.00;;;;;;;2.09;100.00;101256.84;5105223;28;20058;-67
2022/11/14 02:22:57;;;;;;;26.38;15.45;;;;;;;2.04;100.00;101253.13;5096929;28;20027;-67
2022/11/14 02:25:23;;;;;;;25.10;15.10;;;;;;;1.97;100.00;101257.19;5105261;28;20035;-68
2022/11/14 02:27:49;;;;;;;25.48;15.40;;;;;;;1.90;100.00;101245.56;5102001;28;20032;-69
2022/11/14 02:30:18;;;;;;;25.70;15.82;;;;;;;1.91;100.00;101249.97;5103948;28;20064;-67
2022/11/14 02:32:44;;;;;;;25.48;15.38;;;;;;;1.85;100.00;101252.28;5101550;28;20466;-65
2022/11/14 02:35:09;;;;;;;25.45;15.82;;;;;;;1.85;100.00;101251.38;5103119;28;20043;-67
2022/11/14 02:37:35;;;;;;;26.15;15.40;;;;;;;1.79;100.00;101245.91;5103949;28;20028;-67
2022/11/14 02:40:00;;;;;;;25.85;15.70;;;;;;;1.76;100.00;101245.75;5101446;28;20493;-68
2022/11/14 02:42:26;;;;;;;25.92;15.48;;;;;;;1.77;100.00;101256.25;5104261;28;20035;-68
2022/11/14 02:44:51;;;;;;;25.15;15.75;;;;;;;1.81;100.00;101252.09;5101459;28;20107;-68
2022/11/14 02:47:16;;;;;;;26.55;16.23;;;;;;;1.87;100.00;101244.53;5104545;28;20139;-67
2022/11/14 02:49:42;;;;;;;25.25;14.95;;;;;;;1.74;100.00;101233.53;5104870;28;20476;-67
2022/11/14 02:52:07;;;;;;;25.42;15.40;;;;;;;1.72;100.00;101239.53;5102026;28;20126;-66
2022/11/14 02:54:32;;;;;;;28.00;16.48;;;;;;;1.71;100.00;101233.41;5102089;28;20032;-67
2022/11/14 02:56:58;;;;;;;25.50;14.82;;;;;;;1.71;100.00;101233.41;5103294;28;20105;-68
2022/11/14 02:59:23;;;;;;;25.73;15.80;;;;;;;1.76;100.00;101233.59;5102024;28;20125;-67
2022/11/14 03:01:48;;;;;;;25.58;15.00;;;;;;;1.69;100.00;101221.09;5104853;28;20062;-67
2022/11/14 03:04:14;;;;;;;25.25;14.98;;;;;;;1.68;100.00;101228.03;5100987;28;20039;-67
2022/11/14 03:06:39;;;;;;;25.90;14.70;;;;;;;1.66;100.00;101223.56;5104614;28;20023;-68
2022/11/14 03:09:04;;;;;;;26.25;15.20;;;;;;;1.62;100.00;101221.66;5101779;28;20501;-67
2022/11/14 03:11:30;;;;;;;25.23;15.07;;;;;;;1.56;100.00;101220.53;5102985;28;20039;-67
2022/11/14 03:13:55;;;;;;;24.70;14.50;;;;;;;1.46;100.00;101214.84;5103375;28;20031;-67
2022/11/14 03:16:20;;;;;;;26.00;14.63;;;;;;;1.46;100.00;101210.50;5101708;28;20040;-68
2022/11/14 03:18:46;;;;;;;25.10;14.45;;;;;;;1.44;100.00;101217.34;5106257;28;20449;-66
2022/11/14 03:21:18;;;;;;;24.60;14.65;;;;;;;1.45;100.00;101210.44;5105426;28;20032;-68
2022/11/14 03:23:43;;;;;;;25.60;14.85;;;;;;;1.37;100.00;101213.56;5101213;28;20027;-67
2022/11/14 03:26:10;;;;;;;24.73;14.88;;;;;;;1.34;100.00;101207.31;5108142;28;20024;-68
2022/11/14 03:28:37;;;;;;;25.40;15.25;;;;;;;1.35;100.00;101217.81;5105862;28;20036;-68
2022/11/14 03:31:03;;;;;;;25.88;15.38;;;;;;;1.33;100.00;101219.47;5107117;28;20474;-67
2022/11/14 03:33:28;;;;;;;25.85;15.45;;;;;;;1.28;100.00;101210.53;5106834;28;20034;-67
2022/11/14 03:35:54;;;;;;;25.08;15.93;;;;;;;1.26;100.00;101212.16;5106031;28;20463;-68
2022/11/14 03:38:23;;;;;;;25.27;15.50;;;;;;;1.23;100.00;101209.41;5107780;28;20458;-67
2022/11/14 03:40:51;;;;;;;26.05;15.65;;;;;;;1.24;100.00;101207.69;5104989;28;20535;-68
2022/11/14 03:43:18;;;;;;;25.02;15.80;;;;;;;1.18;100.00;101204.00;5107999;28;20603;-68
2022/11/14 03:45:44;;;;;;;25.75;16.17;;;;;;;1.12;100.00;101203.72;5104629;28;20039;-68
2022/11/14 03:48:10;;;;;;;25.25;15.85;;;;;;;1.08;100.00;101198.25;5108125;28;20024;-68
2022/11/14 03:50:35;;;;;;;25.55;15.95;;;;;;;1.09;100.00;101195.72;5104942;28;20605;-68
2022/11/14 03:53:00;;;;;;;25.45;16.02;;;;;;;1.10;100.00;101202.72;5107031;28;20057;-67
2022/11/14 03:55:26;;;;;;;25.40;16.02;;;;;;;1.09;100.00;101197.44;5105864;28;20118;-68
2022/11/14 03:57:51;;;;;;;27.13;17.27;;;;;;;1.13;100.00;101197.66;5106035;28;20095;-68
2022/11/14 04:00:17;;;;;;;27.05;17.23;;;;;;;1.21;100.00;101192.84;5107117;28;20121;-69
2022/11/14 04:02:42;;;;;;;26.85;16.58;;;;;;;1.23;100.00;101185.97;5104617;28;20032;-68
2022/11/14 04:05:08;;;;;;;26.20;16.75;;;;;;;1.14;100.00;101185.53;5107708;28;20558;-68
2022/11/14 04:07:34;;;;;;;26.52;16.67;;;;;;;1.13;100.00;101183.75;5102793;28;20542;-68
2022/11/14 04:09:59;;;;;;;25.65;16.75;;;;;;;1.07;100.00;101178.25;5107216;28;20056;-68
2022/11/14 04:12:24;;;;;;;25.52;15.88;;;;;;;0.93;100.00;101180.19;5105291;28;20474;-68
2022/11/14 04:14:50;;;;;;;25.85;15.65;;;;;;;0.86;100.00;101179.00;5105823;28;20035;-68
2022/11/14 04:17:15;;;;;;;25.45;15.82;;;;;;;0.81;100.00;101175.28;5106766;28;20031;-68
2022/11/14 04:19:40;;;;;;;24.67;15.38;;;;;;;0.79;100.00;101171.72;5104346;28;20031;-68
2022/11/14 04:22:06;;;;;;;25.13;15.10;;;;;;;0.79;100.00;101171.72;5107598;28;20036;-69
2022/11/14 04:24:31;;;;;;;25.88;16.20;;;;;;;0.79;100.00;101172.59;5104034;28;20486;-68
2022/11/14 04:26:57;;;;;;;26.02;15.32;;;;;;;0.77;100.00;101160.31;5106835;28;20490;-68
2022/11/14 04:29:22;;;;;;;24.65;15.40;;;;;;;0.75;100.00;101159.34;5105143;28;20035;-68
2022/11/14 04:31:47;;;;;;;25.40;15.77;;;;;;;0.69;100.00;101160.81;5104979;28;20119;-68
2022/11/14 04:34:13;;;;;;;25.15;15.20;;;;;;;0.65;100.00;101166.69;5106404;28;20032;-69
2022/11/14 04:36:38;;;;;;;25.00;15.10;;;;;;;0.61;100.00;101159.56;5103714;28;20020;-68
2022/11/14 04:39:04;;;;;;;24.95;15.45;;;;;;;0.62;100.00;101166.53;5107197;28;20020;-68
2022/11/14 04:41:29;;;;;;;26.25;15.77;;;;;;;0.60;100.00;101156.91;5103722;28;20028;-68
2022/11/14 04:43:54;;;;;;;25.48;15.18;;;;;;;0.60;100.00;101155.19;5105672;28;20051;-64
2022/11/14 04:46:20;;;;;;;25.75;16.00;;;;;;;0.58;100.00;101156.78;5105246;28;20074;-64
2022/11/14 04:48:45;;;;;;;25.23;15.88;;;;;;;0.53;100.00;101158.28;5105011;28;20039;-63
2022/11/14 04:51:10;;;;;;;26.08;16.13;;;;;;;0.54;100.00;101151.38;5106218;28;20027;-64
2022/11/14 04:53:36;;;;;;;25.67;16.20;;;;;;;0.46;100.00;101151.00;5103859;28;20024;-64
2022/11/14 04:56:01;;;;;;;26.15;17.20;;;;;;;0.44;100.00;101157.84;5106765;28;20019;-63
2022/11/14 04:58:27;;;;;;;25.98;15.73;;;;;;;0.40;100.00;101153.28;5103894;28;20048;-64
2022/11/14 05:00:52;;;;;;;27.67;16.73;;;;;;;0.37;100.00;101148.81;5105760;28;20028;-64
2022/11/14 05:03:17;;;;;;;26.85;16.67;;;;;;;0.31;100.00;101148.50;5104722;28;20114;-63
2022/11/14 05:05:43;;;;;;;25.52;16.58;;;;;;;0.23;100.00;101150.69;5104922;28;20024;-64
2022/11/14 05:08:08;;;;;;;26.55;16.88;;;;;;;0.18;100.00;101149.59;5105309;28;20076;-64
2022/11/14 05:10:33;;;;;;;26.63;17.02;;;;;;;0.13;100.00;101153.66;5103510;28;20475;-64
2022/11/14 05:12:59;;;;;;;25.92;16.15;;;;;;;0.09;100.00;101144.81;5106596;28;20035;-64
2022/11/14 05:15:24;;;;;;;26.35;16.42;;;;;;;0.11;100.00;101143.16;5103028;28;20076;-63
2022/11/14 05:17:50;;;;;;;26.35;17.05;;;;;;;0.07;100.00;101140.34;5105748;28;20052;-64
2022/11/14 05:20:15;;;;;;;26.90;17.27;;;;;;;0.15;100.00;101133.84;5104370;28;20077;-63
2022/11/14 05:22:40;;;;;;;27.15;17.30;;;;;;;0.12;100.00;101131.97;5103962;28;20398;-64
2022/11/14 05:25:07;;;;;;;26.45;16.83;;;;;;;0.10;100.00;101124.91;5105757;28;20032;-64
2022/11/14 05:27:32;;;;;;;26.70;17.13;;;;;;;0.07;100.00;101128.22;5102930;28;20051;-63
2022/11/14 05:29:57;;;;;;;26.90;17.17;;;;;;;0.05;100.00;101129.88;5106301;28;20075;-64
2022/11/14 05:32:23;;;;;;;26.70;17.63;;;;;;;0.06;100.00;101122.94;5103099;28;20031;-64
2022/11/14 05:34:48;;;;;;;27.15;16.70;;;;;;;0.07;100.00;101119.53;5104735;28;20020;-69
2022/11/14 05:37:13;;;;;;;28.27;18.27;;;;;;;0.12;100.00;101113.75;5104106;28;20115;-69
2022/11/14 05:39:39;;;;;;;29.15;18.90;;;;;;;0.19;100.00;101120.19;5096212;28;20032;-68
2022/11/14 05:42:05;;;;;;;28.23;19.30;;;;;;;0.19;100.00;101120.19;5103759;28;20032;-69
2022/11/14 05:44:30;;;;;;;27.52;17.83;;;;;;;0.16;100.00;101112.19;5102435;28;20052;-69
2022/11/14 05:46:56;;;;;;;26.75;17.83;;;;;;;0.06;100.00;101108.25;5105944;28;20071;-68
2022/11/14 05:49:22;;;;;;;27.35;17.33;;;;;;;-0.04;100.00;101116.41;5100872;28;20032;-67
2022/11/14 05:51:47;;;;;;;27.55;17.83;;;;;;;-0.09;100.00;101112.66;5105703;28;20436;-68
2022/11/14 05:54:13;;;;;;;27.73;17.88;;;;;;;-0.08;100.00;101117.94;5102676;28;20029;-69
2022/11/14 05:56:38;;;;;;;28.70;18.13;;;;;;;-0.12;100.00;101108.19;5103136;28;20386;-68
2022/11/14 05:59:03;;;;;;;27.45;17.83;;;;;;;-0.08;100.00;101115.34;5103767;28;20027;-69
2022/11/14 06:01:29;;;;;;;27.65;16.95;;;;;;;-0.13;100.00;101108.09;5103099;28;20492;-69
2022/11/14 06:03:54;;;;;;;27.42;17.58;;;;;;;-0.11;100.00;101109.09;5105174;28;20035;-69
2022/11/14 06:06:20;;;;;;;26.95;16.80;;;;;;;-0.11;100.00;101109.97;5102371;28;20039;-68
2022/11/14 06:08:46;;;;;;;26.83;17.30;;;;;;;-0.12;100.00;101113.38;5105437;28;20467;-69
2022/11/14 06:11:17;;;;;;;27.33;16.40;;;;;;;-0.11;100.00;101109.97;5102107;28;20025;-68
2022/11/14 06:13:43;;;;;;;27.20;16.58;;;;;;;-0.19;100.00;101107.00;5097636;28;20035;-69
2022/11/14 06:16:12;;;;;;;25.98;16.08;;;;;;;-0.20;100.00;101117.31;5104906;28;20115;-67
2022/11/14 06:18:38;;;;;;;28.25;16.38;;;;;;;-0.22;100.00;101118.91;5102270;28;20058;-64
2022/11/14 06:21:13;;;;;;;25.77;15.88;;;;;;;-0.22;100.00;101113.72;5103857;28;20051;-64
2022/11/14 06:23:38;;;;;;;26.20;15.75;;;;;;;-0.26;100.00;101112.69;5102179;28;20027;-64
2022/11/14 06:26:06;;;;;;;26.75;15.63;;;;;;;-0.27;100.00;101129.06;5104099;28;20026;-64
2022/11/14 06:28:32;;;;;;;27.50;16.75;;;;;;;-0.22;100.00;101125.03;5103212;28;20027;-64
2022/11/14 06:30:58;;;;;;;27.52;17.40;;;;;;;-0.23;100.00;101112.84;5103261;28;20043;-64
2022/11/14 06:33:24;;;;;;;26.33;16.67;;;;;;;-0.29;100.00;101116.81;5104057;28;20115;-64
2022/11/14 06:35:50;;;;;;;27.55;16.83;;;;;;;-0.36;100.00;101119.09;5101711;28;20028;-64
2022/11/14 06:38:15;;;;;;;26.42;16.38;;;;;;;-0.41;100.00;101119.66;5105150;28;20484;-63
2022/11/14 06:40:40;;;;;;;27.00;16.85;;;;;;;-0.41;100.00;101112.78;5101553;28;20036;-63
2022/11/14 06:43:06;;;;;;;27.48;16.42;;;;;;;-0.47;100.00;101119.34;5102400;28;20059;-63
2022/11/14 06:45:31;;;;;;;27.63;16.50;;;;;;;-0.49;100.00;101121.84;5098604;28;20030;-62
2022/11/14 06:47:59;;;;;;;28.50;16.63;;;;;;;-0.48;100.00;101117.53;5095449;28;20032;-61
2022/11/14 06:50:25;;;;;;;26.85;16.20;;;;;;;-0.47;100.00;101120.22;5097630;28;20096;-61
2022/11/14 06:52:50;;;;;;;26.38;16.65;;;;;;;-0.47;100.00;101130.59;5098998;28;20424;-62
2022/11/14 06:55:16;;;;;;;27.38;17.00;;;;;;;-0.52;100.00;101132.09;5097417;28;20154;-62
2022/11/14 06:57:41;;;;;;;26.65;16.80;;;;;;;-0.56;100.00;101127.53;5100332;28;20032;-61
2022/11/14 07:00:07;;;;;;;26.52;16.63;;;;;;;-0.55;100.00;101131.94;5096951;28;20028;-62
2022/11/14 07:02:33;;;;;;;27.13;16.67;;;;;;;-0.57;100.00;101129.25;5097496;28;20379;-62
2022/11/14 07:04:58;;;;;;;27.60;16.85;;;;;;;-0.53;100.00;101132.88;5095433;28;20024;-62
2022/11/14 07:07:23;;;;;;;27.67;16.42;;;;;;;-0.56;100.00;101124.94;5098147;28;20119;-61
2022/11/14 07:09:53;;;;;;;26.60;16.38;;;;;;;-0.54;100.00;101133.69;5093241;28;20027;-62
2022/11/14 07:12:18;;;;;;;27.65;17.27;;;;;;;-0.48;100.00;101138.31;5096995;28;20375;-62
2022/11/14 07:14:43;;;;;;;27.63;16.50;;;;;;;-0.44;100.00;101146.34;5098360;28;20082;-61
2022/11/14 07:17:09;;;;;;;28.08;16.67;;;;;;;-0.49;100.00;101131.38;5098765;28;20036;-60
2022/11/14 07:19:34;;;;;;;26.40;15.50;;;;;;;-0.45;100.00;101142.00;5100733;28;20111;-61
2022/11/14 07:21:59;;;;;;;26.75;16.60;;;;;;;-0.44;100.00;101148.94;5097620;28;20475;-61
2022/11/14 07:24:25;;;;;;;27.33;16.42;;;;;;;-0.40;100.00;101144.84;5093963;28;20360;-62
2022/11/14 07:26:50;;;;;;;27.65;16.92;;;;;;;-0.37;100.00;101134.59;5099861;28;20470;-62
2022/11/14 07:29:15;;;;;;;27.42;16.48;;;;;;;-0.35;100.00;101130.38;5095243;28;20036;-60
2022/11/14 07:31:41;;;;;;;27.08;16.10;;;;;;;-0.35;100.00;101132.97;5097588;28;20169;-62
2022/11/14 07:34:07;;;;;;;26.08;16.02;;;;;;;-0.35;100.00;101130.38;5098775;28;20055;-61
2022/11/14 07:36:33;;;;;;;26.50;16.10;;;;;;;-0.29;100.00;101127.19;5098292;28;20043;-62
2022/11/14 07:38:58;;;;;;;27.23;15.98;;;;;;;-0.26;100.00;101128.28;5098652;28;20031;-62
2022/11/14 07:41:23;;;;;;;26.98;16.67;;;;;;;-0.19;100.00;101117.38;5095247;28;20111;-61
2022/11/14 07:43:49;;;;;;;28.20;16.27;;;;;;;-0.18;100.00;101110.47;5094881;28;20135;-60
2022/11/14 07:46:16;;;;;;;27.65;16.20;;;;;;;-0.09;100.00;101107.47;5094776;28;20121;-62
2022/11/14 07:48:41;;;;;;;27.20;16.90;;;;;;;-0.03;100.00;101112.97;5099180;28;20061;-62
2022/11/14 07:51:13;;;;;;;27.60;18.23;;;;;;;0.16;100.00;101120.00;5092839;28;20115;-61
2022/11/14 07:53:38;;;;;;;28.92;18.08;;;;;;;0.21;100.00;101118.53;5090119;28;20398;-60
2022/11/14 07:56:05;;;;;;;28.63;18.13;;;;;;;0.38;100.00;101115.88;5096286;28;20020;-61
2022/11/14 07:58:33;;;;;;;28.77;18.23;;;;;;;0.58;100.00;101114.28;5098079;28;20043;-62
2022/11/14 08:01:03;;;;;;;29.13;19.25;;;;;;;0.78;100.00;101112.66;5096329;28;20030;-63
2022/11/14 08:03:29;;;;;;;28.83;18.40;;;;;;;0.96;100.00;101108.34;5095210;28;20043;-63
2022/11/14 08:06:02;;;;;;;28.88;18.88;;;;;;;1.21;100.00;101104.28;5098480;28;20467;-61
2022/11/14 08:08:27;;;;;;;28.70;17.88;;;;;;;1.52;100.00;101101.34;5100561;28;20047;-63
2022/11/14 08:10:56;;;;;;;27.45;17.50;;;;;;;1.82;100.00;101105.25;5096085;28;20157;-63
2022/11/14 08:13:21;;;;;;;27.67;16.58;;;;;;;2.05;100.00;101099.34;5099009;28;20150;-64
2022/11/14 08:15:46;;;;;;;27.27;15.52;;;;;;;2.25;100.00;101100.16;5099716;28;20068;-63
2022/11/14 08:18:12;;;;;;;25.77;15.27;;;;;;;2.51;100.00;101089.94;5098809;28;20032;-63
2022/11/14 08:20:37;;;;;;;24.05;14.20;;;;;;;2.81;100.00;101089.41;5095974;28;20399;-63
2022/11/14 08:23:04;;;;;;;25.33;14.13;;;;;;;3.14;100.00;101083.69;5099667;28;20032;-64
2022/11/14 08:25:30;;;;;;;26.48;14.63;;;;;;;3.29;100.00;101093.84;5102746;28;20032;-65
2022/11/14 08:27:55;;;;;;;25.58;14.52;;;;;;;3.48;100.00;101091.09;5101287;28;20115;-65
2022/11/14 08:30:20;;;;;;;25.73;14.48;;;;;;;3.67;100.00;101090.03;5099945;28;20043;-65
2022/11/14 08:32:45;;;;;;;26.23;14.70;;;;;;;3.80;100.00;101088.75;5103233;28;20028;-66
2022/11/14 08:35:11;;;;;;;26.27;14.57;;;;;;;4.03;100.00;101082.56;5105984;28;20078;-65
2022/11/14 08:37:36;;;;;;;25.27;14.05;;;;;;;4.31;100.00;101081.75;5105322;28;20077;-65
2022/11/14 08:40:02;;;;;;;25.60;14.23;;;;;;;4.61;100.00;101076.66;5103615;28;20028;-65
2022/11/14 08:42:27;;;;;;;24.33;13.57;;;;;;;4.88;100.00;101071.41;5104764;28;20180;-65
2022/11/14 08:44:53;;;;;;;25.20;13.70;;;;;;;5.03;100.00;101070.09;5106233;28;20032;-65
2022/11/14 08:47:18;;;;;;;25.10;13.77;;;;;;;5.15;100.00;101064.34;5102035;28;20039;-65
2022/11/14 08:49:44;;;;;;;24.10;13.27;;;;;;;5.09;100.00;101070.28;5102569;28;20024;-66
2022/11/14 08:52:09;;;;;;;23.88;12.98;;;;;;;5.14;100.00;101079.19;5100215;28;20486;-63
2022/11/14 08:54:34;;;;;;;24.70;13.70;;;;;;;5.17;100.00;101079.28;5099573;28;20474;-63
2022/11/14 08:57:00;;;;;;;25.58;14.32;;;;;;;5.27;100.00;101075.22;5096951;28;20067;-63
2022/11/14 08:59:25;;;;;;;25.58;13.82;;;;;;;5.44;100.00;101075.69;5101806;28;20032;-63
2022/11/14 09:01:51;;;;;;;23.98;13.88;;;;;;;5.61;100.00;101070.03;5100849;28;20035;-63
2022/11/14 09:04:16;;;;;;;25.35;13.65;;;;;;;5.76;100.00;101075.72;5098437;28;20024;-63
2022/11/14 09:06:41;;;;;;;24.50;13.45;;;;;;;5.88;100.00;101068.19;5100362;28;20109;-63
2022/11/14 09:09:07;;;;;;;25.85;13.45;;;;;;;6.07;100.00;101068.69;5099785;28;20524;-66
2022/11/14 09:11:32;;;;;;;27.77;13.10;;;;;;;6.36;100.00;101065.94;5099385;28;20125;-62
2022/11/14 09:13:57;;;;;;;26.80;13.40;;;;;;;6.51;100.00;101057.53;5095199;28;20437;-62
2022/11/14 09:16:23;;;;;;;25.52;12.70;;;;;;;6.54;100.00;101066.41;5095304;28;20039;-64
2022/11/14 09:18:51;;;;;;;26.50;13.02;;;;;;;6.54;100.00;101058.50;5102740;28;20020;-63
2022/11/14 09:21:16;;;;;;;26.33;13.05;;;;;;;6.66;100.00;101047.41;5096845;28;20035;-62
2022/11/14 09:23:42;;;;;;;25.75;13.13;;;;;;;6.74;100.00;101051.13;5093692;28;20489;-62
2022/11/14 09:26:08;;;;;;;25.17;13.20;;;;;;;6.73;100.00;101041.44;5097436;28;20040;-62
2022/11/14 09:28:35;;;;;;;26.55;13.40;;;;;;;6.67;100.00;101037.78;5099399;28;20028;-62
2022/11/14 09:31:02;;;;;;;25.75;13.85;;;;;;;6.98;100.00;101045.50;5099363;28;20024;-63
2022/11/14 09:33:28;;;;;;;24.60;13.48;;;;;;;7.49;100.00;101041.31;5095687;28;20537;-64
2022/11/14 09:36:04;;;;;;;25.05;13.23;;;;;;;7.61;100.00;101032.78;5100929;28;20058;-63
2022/11/14 09:38:30;;;;;;;24.40;12.80;;;;;;;7.96;100.00;101031.69;5093735;28;20028;-63
2022/11/14 09:41:23;;;;;;;23.83;12.77;;;;;;;8.58;100.00;101032.72;5093783;28;20051;-64
2022/11/14 09:44:21;;;;;;;23.58;12.55;;;;;;;8.95;100.00;101034.16;5100424;28;20051;-63
2022/11/14 09:47:17;;;;;;;24.65;12.77;;;;;;;8.93;100.00;101030.63;5099334;28;20027;-63
2022/11/14 09:49:45;;;;;;;22.95;12.40;;;;;;;9.10;100.00;101019.41;5095829;28;20039;-65
2022/11/14 09:52:34;;;;;;;24.55;12.80;;;;;;;9.13;100.00;101027.38;5097530;28;20538;-66
2022/11/14 09:55:30;;;;;;;23.25;12.50;;;;;;;9.31;100.00;101034.66;5092246;28;20379;-65
2022/11/14 09:57:56;;;;;;;22.55;12.70;;;;;;;9.24;100.00;101034.56;5094916;28;20027;-65
2022/11/14 10:00:28;;;;;;;24.50;13.23;;;;;;;9.34;100.00;101038.19;5102391;28;20029;-65
2022/11/14 10:02:56;;;;;;;23.77;12.95;;;;;;;9.59;100.00;101030.56;5103710;28;20032;-68
2022/11/14 10:05:24;;;;;;;23.90;12.75;;;;;;;10.15;100.00;101041.69;5103284;28;20391;-68
2022/11/14 10:08:23;;;;;;;22.85;12.40;;;;;;;10.53;100.00;101030.59;5104140;28;20031;-69
2022/11/14 10:10:53;;;;;;;24.55;12.68;;;;;;;10.44;100.00;101034.06;5100314;28;20482;-69
2022/11/14 10:13:48;;;;;;;22.65;12.40;;;;;;;10.24;100.00;101032.13;5104583;28;20028;-69
2022/11/14 10:16:19;;;;;;;24.52;12.55;;;;;;;10.51;100.00;101045.56;5061112;28;20043;-69
2022/11/14 10:19:12;;;;;;;23.85;12.45;;;;;;;10.54;100.00;101030.63;5096770;28;20019;-69
2022/11/14 10:21:50;;;;;;;23.73;12.82;;;;;;;10.44;100.00;101023.47;5098069;28;20024;-68
2022/11/14 10:24:18;;;;;;;25.83;13.30;;;;;;;10.49;100.00;101024.41;5100442;28;20438;-69
2022/11/14 10:26:58;;;;;;;23.70;13.30;;;;;;;11.06;100.00;101019.47;5104285;28;20419;-69
2022/11/14 10:29:48;;;;;;;23.85;13.15;;;;;;;11.68;100.00;101025.03;5103529;28;20106;-69
2022/11/14 10:32:17;;;;;;;23.88;12.80;;;;;;;12.40;100.00;101018.06;5099644;28;20036;-69
2022/11/14 10:34:51;;;;;;;22.80;12.57;;;;;;;13.22;100.00;101014.38;5104598;28;20032;-69
2022/11/14 10:37:36;;;;;;;23.85;12.60;;;;;;;13.72;100.00;101024.78;5102838;28;20028;-69
2022/11/14 10:40:15;;;;;;;23.10;12.15;;;;;;;14.54;100.00;101011.75;5101485;28;20028;-69
2022/11/14 10:42:45;;;;;;;23.77;12.43;;;;;;;14.69;100.00;101015.19;5101165;28;20468;-69
2022/11/14 10:45:22;;;;;;;23.35;12.95;;;;;;;15.30;100.00;101017.19;5102395;28;20394;-69
2022/11/14 10:47:56;;;;;;;23.58;12.40;;;;;;;15.39;100.00;101009.97;5102409;28;20039;-69
2022/11/14 10:50:27;;;;;;;23.23;12.55;;;;;;;15.75;100.00;101011.22;5101935;28;20028;-69
2022/11/14 10:52:59;;;;;;;23.70;12.88;;;;;;;16.14;100.00;101008.03;5104331;28;20031;-69
2022/11/14 10:55:24;;;;;;;23.80;12.80;;;;;;;16.20;68.80;101005.25;5101378;28;20020;-69
2022/11/14 10:57:49;;;;;;;23.48;12.77;;;;;;;16.35;63.63;100998.78;5103971;28;20101;-69
2022/11/14 11:00:21;;;;;;;23.65;13.27;;;;;;;16.35;62.13;101005.00;5102641;28;20382;-69
2022/11/14 11:02:55;;;;;;;23.98;13.25;;;;;;;17.01;58.86;101000.28;5103267;28;20479;-69
2022/11/14 11:05:24;;;;;;;24.25;13.20;;;;;;;17.37;56.80;100996.84;5101668;28;20028;-69
2022/11/14 11:13:53;;;;;;;23.73;13.40;;;;;;;18.12;52.72;100997.84;5101742;28;20039;-67